createdAt,value
2017-09-12T00:00:55.321Z,99.90
2017-09-12T00:03:21.645Z,99.90
2017-09-12T00:05:47.944Z,99.90
2017-09-12T00:08:14.249Z,99.90
2017-09-12T00:10:40.555Z,99.90
2017-09-12T00:13:07.094Z,99.90
2017-09-12T00:15:33.403Z,99.90
2017-09-12T00:17:59.715Z,99.90
2017-09-12T00:20:27.594Z,99.90
2017-09-12T00:22:53.899Z,99.90
2017-09-12T00:25:20.201Z,99.90
2017-09-12T00:27:47.307Z,99.90
2017-09-12T00:30:14.400Z,99.90
2017-09-12T00:32:41.491Z,99.90
2017-09-12T00:35:08.549Z,99.90
2017-09-12T00:37:34.875Z,99.90
2017-09-12T00:40:01.219Z,99.90
2017-09-12T00:42:27.530Z,99.90
2017-09-12T00:44:54.615Z,99.90
2017-09-12T00:47:20.914Z,99.90
2017-09-12T00:49:47.949Z,99.90
2017-09-12T00:52:15.047Z,99.90
2017-09-12T00:54:41.362Z,99.90
2017-09-12T00:57:07.702Z,99.90
2017-09-12T00:59:34.020Z,99.90
2017-09-12T01:02:00.356Z,99.90
2017-09-12T01:04:26.672Z,99.90
2017-09-12T01:06:52.997Z,99.90
2017-09-12T01:09:19.323Z,99.90
2017-09-12T01:11:45.657Z,99.90
2017-09-12T01:14:11.970Z,99.90
2017-09-12T01:16:38.338Z,99.90
2017-09-12T01:19:04.669Z,99.90
2017-09-12T01:21:31.001Z,99.90
2017-09-12T01:23:57.312Z,99.90
2017-09-12T01:26:23.650Z,99.90
2017-09-12T01:28:50.003Z,99.90
2017-09-12T01:31:16.366Z,99.90
2017-09-12T01:33:43.456Z,99.90
2017-09-12T01:36:09.982Z,99.90
2017-09-12T01:38:37.059Z,99.90
2017-09-12T01:41:03.392Z,99.90
2017-09-12T01:43:29.712Z,99.90
2017-09-12T01:45:56.070Z,99.90
2017-09-12T01:48:22.401Z,99.90
2017-09-12T01:50:48.709Z,99.90
2017-09-12T01:53:15.009Z,99.90
2017-09-12T01:55:41.384Z,99.90
2017-09-12T01:58:07.712Z,99.90
2017-09-12T02:00:34.023Z,99.90
2017-09-12T02:03:00.305Z,99.90
2017-09-12T02:05:27.349Z,99.90
2017-09-12T02:07:54.384Z,99.90
2017-09-12T02:10:20.673Z,99.90
2017-09-12T02:12:46.952Z,99.90
2017-09-12T02:15:13.987Z,99.90
2017-09-12T02:17:40.271Z,99.90
2017-09-12T02:20:06.549Z,99.90
2017-09-12T02:22:32.830Z,99.90
2017-09-12T02:24:59.149Z,99.90
2017-09-12T02:27:25.930Z,99.90
2017-09-12T02:29:52.199Z,99.90
2017-09-12T02:32:19.225Z,99.90
2017-09-12T02:34:45.525Z,99.90
2017-09-12T02:37:11.829Z,99.90
2017-09-12T02:39:38.831Z,99.90
2017-09-12T02:42:05.120Z,99.90
2017-09-12T02:44:31.404Z,99.90
2017-09-12T02:46:58.434Z,99.90
2017-09-12T02:49:26.191Z,99.90
2017-09-12T02:51:52.481Z,99.90
2017-09-12T02:54:18.745Z,99.90
2017-09-12T02:56:45.001Z,99.90
2017-09-12T02:59:11.292Z,99.90
2017-09-12T03:01:37.558Z,99.90
2017-09-12T03:04:04.590Z,99.90
2017-09-12T03:06:30.873Z,99.90
2017-09-12T03:08:57.151Z,99.90
2017-09-12T03:11:23.419Z,99.90
2017-09-12T03:13:50.438Z,99.90
2017-09-12T03:16:17.456Z,99.90
2017-09-12T03:18:43.724Z,99.90
2017-09-12T03:21:09.976Z,99.90
2017-09-12T03:23:36.983Z,99.90
2017-09-12T03:26:04.011Z,99.90
2017-09-12T03:28:30.305Z,99.90
2017-09-12T03:30:56.616Z,99.90
2017-09-12T03:33:23.619Z,99.90
2017-09-12T03:35:49.941Z,99.90
2017-09-12T03:38:16.213Z,99.90
2017-09-12T03:40:43.224Z,99.90
2017-09-12T03:43:10.282Z,99.90
2017-09-12T03:45:37.323Z,99.90
2017-09-12T03:48:03.616Z,99.90
2017-09-12T03:50:29.912Z,99.90
2017-09-12T03:52:56.931Z,99.90
2017-09-12T03:55:23.261Z,99.90
2017-09-12T03:57:49.566Z,99.90
2017-09-12T04:00:15.868Z,99.90
2017-09-12T04:02:42.153Z,99.90
2017-09-12T04:05:08.443Z,99.90
2017-09-12T04:07:34.724Z,99.90
2017-09-12T04:10:01.780Z,99.90
2017-09-12T04:12:28.428Z,99.90
2017-09-12T04:14:55.441Z,99.90
2017-09-12T04:17:21.745Z,99.90
2017-09-12T04:19:48.981Z,99.90
2017-09-12T04:22:15.282Z,99.90
2017-09-12T04:24:42.304Z,99.90
2017-09-12T04:27:09.364Z,99.90
2017-09-12T04:29:36.399Z,99.90
2017-09-12T04:32:03.769Z,99.90
2017-09-12T04:34:30.827Z,99.90
2017-09-12T04:36:57.146Z,99.90
2017-09-12T04:39:24.170Z,99.90
2017-09-12T04:41:50.478Z,99.90
2017-09-12T04:44:16.781Z,99.90
2017-09-12T04:46:43.082Z,99.90
2017-09-12T04:49:10.133Z,99.90
2017-09-12T04:51:37.199Z,99.90
2017-09-12T04:54:03.515Z,99.90
2017-09-12T04:56:30.568Z,99.90
2017-09-12T04:58:56.902Z,99.90
2017-09-12T05:01:23.182Z,99.90
2017-09-12T05:03:49.485Z,99.90
2017-09-12T05:06:15.763Z,99.90
2017-09-12T05:08:42.072Z,99.90
2017-09-12T05:11:08.371Z,99.90
2017-09-12T05:13:34.684Z,99.90
2017-09-12T05:16:00.978Z,99.90
2017-09-12T05:18:28.024Z,99.90
2017-09-12T05:20:55.059Z,99.90
2017-09-12T05:23:21.384Z,99.90
2017-09-12T05:25:47.649Z,99.90
2017-09-12T05:28:14.661Z,99.90
2017-09-12T05:30:40.981Z,99.90
2017-09-12T05:33:07.709Z,99.90
2017-09-12T05:35:33.993Z,99.90
2017-09-12T05:38:01.015Z,99.90
2017-09-12T05:40:27.329Z,99.90
2017-09-12T05:42:53.624Z,99.90
2017-09-12T05:45:19.891Z,99.90
2017-09-12T05:47:46.219Z,99.90
2017-09-12T05:50:12.533Z,99.90
2017-09-12T05:52:38.825Z,99.90
2017-09-12T05:55:05.870Z,99.90
2017-09-12T05:57:32.894Z,99.90
2017-09-12T05:59:59.163Z,99.90
2017-09-12T06:02:25.454Z,99.90
2017-09-12T06:04:52.547Z,99.90
2017-09-12T06:07:18.804Z,99.90
2017-09-12T06:09:45.085Z,99.90
2017-09-12T06:12:12.115Z,99.90
2017-09-12T06:14:39.152Z,99.90
2017-09-12T06:17:06.933Z,99.90
2017-09-12T06:19:33.965Z,99.90
2017-09-12T06:22:01.040Z,99.90
2017-09-12T06:24:27.334Z,99.90
2017-09-12T06:26:53.622Z,99.90
2017-09-12T06:29:19.904Z,99.90
2017-09-12T06:31:46.479Z,99.90
2017-09-12T06:34:12.784Z,99.90
2017-09-12T06:36:39.811Z,99.90
2017-09-12T06:39:06.098Z,99.90
2017-09-12T06:41:32.404Z,99.90
2017-09-12T06:43:59.424Z,99.90
2017-09-12T06:46:26.513Z,99.90
2017-09-12T06:48:52.793Z,99.90
2017-09-12T06:51:19.836Z,99.90
2017-09-12T06:53:47.604Z,99.90
2017-09-12T06:56:14.641Z,99.90
2017-09-12T06:58:40.991Z,99.90
2017-09-12T07:01:08.924Z,99.90
2017-09-12T07:03:35.240Z,99.90
2017-09-12T07:06:01.574Z,99.90
2017-09-12T07:08:27.889Z,99.90
2017-09-12T07:10:54.209Z,99.90
2017-09-12T07:13:20.530Z,99.90
2017-09-12T07:15:47.787Z,99.90
2017-09-12T07:18:14.094Z,99.90
2017-09-12T07:20:41.129Z,99.90
2017-09-12T07:23:08.188Z,99.90
2017-09-12T07:25:35.944Z,99.90
2017-09-12T07:28:02.294Z,99.90
2017-09-12T07:30:29.384Z,99.90
2017-09-12T07:32:55.680Z,99.90
2017-09-12T07:35:22.731Z,99.90
2017-09-12T07:37:49.025Z,99.90
2017-09-12T07:40:15.277Z,99.90
2017-09-12T07:42:41.580Z,99.90
2017-09-12T07:45:07.904Z,99.90
2017-09-12T07:47:34.188Z,99.90
2017-09-12T07:50:00.478Z,99.90
2017-09-12T07:52:26.766Z,99.90
2017-09-12T07:54:53.079Z,99.90
2017-09-12T07:57:19.369Z,99.90
2017-09-12T07:59:46.437Z,99.90
2017-09-12T08:02:12.743Z,99.90
2017-09-12T08:04:39.779Z,99.90
2017-09-12T08:07:06.068Z,99.90
2017-09-12T08:09:32.358Z,99.90
2017-09-12T08:11:59.402Z,99.90
2017-09-12T08:14:26.430Z,99.90
2017-09-12T08:16:53.259Z,99.90
2017-09-12T08:19:19.552Z,99.90
2017-09-12T08:21:45.845Z,99.90
2017-09-12T08:24:12.138Z,99.90
2017-09-12T08:26:38.438Z,99.90
2017-09-12T08:29:04.743Z,99.90
2017-09-12T08:31:31.095Z,99.90
2017-09-12T08:33:57.450Z,99.90
2017-09-12T08:36:23.733Z,99.90
2017-09-12T08:38:50.765Z,99.90
2017-09-12T08:41:18.544Z,99.90
2017-09-12T08:43:45.563Z,99.90
2017-09-12T08:46:11.859Z,99.90
2017-09-12T08:48:38.129Z,99.90
2017-09-12T08:51:04.430Z,99.90
2017-09-12T08:53:30.747Z,99.90
2017-09-12T08:55:57.058Z,99.90
2017-09-12T08:58:23.338Z,99.90
2017-09-12T09:00:49.622Z,99.90
2017-09-12T09:03:15.916Z,99.90
2017-09-12T09:05:42.223Z,99.90
2017-09-12T09:08:08.506Z,99.90
2017-09-12T09:10:34.796Z,99.90
2017-09-12T09:13:02.592Z,99.90
2017-09-12T09:15:29.640Z,99.90
2017-09-12T09:17:55.947Z,99.90
2017-09-12T09:20:22.989Z,99.90
2017-09-12T09:22:49.292Z,99.90
2017-09-12T09:25:15.606Z,99.90
2017-09-12T09:27:41.909Z,99.90
2017-09-12T09:30:08.222Z,99.90
2017-09-12T09:32:35.262Z,99.90
2017-09-12T09:35:02.329Z,99.90
2017-09-12T09:37:29.402Z,99.90
2017-09-12T09:39:55.713Z,99.90
2017-09-12T09:42:21.998Z,99.90
2017-09-12T09:44:48.291Z,99.90
2017-09-12T09:47:14.589Z,99.90
2017-09-12T09:49:40.961Z,99.90
2017-09-12T09:52:07.267Z,99.90
2017-09-12T09:54:33.586Z,99.90
2017-09-12T09:56:59.879Z,99.90
2017-09-12T09:59:26.943Z,99.90
2017-09-12T10:01:53.341Z,99.90
2017-09-12T10:04:19.612Z,99.90
2017-09-12T10:06:46.677Z,99.90
2017-09-12T10:09:13.003Z,99.90
2017-09-12T10:11:39.316Z,99.90
2017-09-12T10:14:06.346Z,99.90
2017-09-12T10:16:33.389Z,99.90
2017-09-12T10:19:01.156Z,99.90
2017-09-12T10:21:27.452Z,99.90
2017-09-12T10:23:53.722Z,99.90
2017-09-12T10:26:20.782Z,99.90
2017-09-12T10:28:47.809Z,99.90
2017-09-12T10:31:14.096Z,99.90
2017-09-12T10:33:40.375Z,99.90
2017-09-12T10:36:08.151Z,99.90
2017-09-12T10:38:34.452Z,99.90
2017-09-12T10:41:00.915Z,99.90
2017-09-12T10:43:27.224Z,99.90
2017-09-12T10:45:53.551Z,99.90
2017-09-12T10:48:19.868Z,99.90
2017-09-12T10:50:46.159Z,99.90
2017-09-12T10:53:12.439Z,99.90
2017-09-12T10:55:38.742Z,99.90
2017-09-12T10:58:05.014Z,99.90
2017-09-12T11:00:32.060Z,99.90
2017-09-12T11:02:59.081Z,99.90
2017-09-12T11:05:25.366Z,99.90
2017-09-12T11:07:51.648Z,99.90
2017-09-12T11:10:17.961Z,99.90
2017-09-12T11:12:44.243Z,99.90
2017-09-12T11:15:11.300Z,99.90
2017-09-12T11:17:37.611Z,99.90
2017-09-12T11:20:04.789Z,99.90
2017-09-12T11:22:31.106Z,99.90
2017-09-12T11:24:57.387Z,99.90
2017-09-12T11:27:23.698Z,99.90
2017-09-12T11:29:49.979Z,99.90
2017-09-12T11:32:16.994Z,99.90
2017-09-12T11:34:43.293Z,99.90
2017-09-12T11:37:09.599Z,99.90
2017-09-12T11:39:35.916Z,99.90
2017-09-12T11:42:02.227Z,99.90
2017-09-12T11:44:29.980Z,99.90
2017-09-12T11:46:56.292Z,99.90
2017-09-12T11:49:22.580Z,99.90
2017-09-12T11:51:48.889Z,99.90
2017-09-12T11:54:15.956Z,99.90
2017-09-12T11:56:42.257Z,99.90
2017-09-12T11:59:10.027Z,99.90
2017-09-12T12:01:37.050Z,99.90
2017-09-12T12:04:03.341Z,99.90
2017-09-12T12:06:29.606Z,99.90
2017-09-12T12:08:55.901Z,99.90
2017-09-12T12:11:22.199Z,99.90
2017-09-12T12:13:49.274Z,99.90
2017-09-12T12:16:15.569Z,99.90
2017-09-12T12:18:42.640Z,99.90
2017-09-12T12:21:08.915Z,99.90
2017-09-12T12:23:35.207Z,99.90
2017-09-12T12:26:01.481Z,99.90
2017-09-12T12:28:27.772Z,99.90
2017-09-12T12:30:54.068Z,99.90
2017-09-12T12:33:21.115Z,99.90
2017-09-12T12:35:48.172Z,99.90
2017-09-12T12:38:16.178Z,99.90
2017-09-12T12:40:42.484Z,99.90
2017-09-12T12:43:09.513Z,99.90
2017-09-12T12:45:35.829Z,99.90
2017-09-12T12:48:03.612Z,99.90
2017-09-12T12:50:30.652Z,99.90
2017-09-12T12:52:56.922Z,99.90
2017-09-12T12:55:23.212Z,99.90
2017-09-12T12:57:50.211Z,99.90
2017-09-12T13:00:16.502Z,99.90
2017-09-12T13:02:42.810Z,99.90
2017-09-12T13:05:09.857Z,99.90
2017-09-12T13:07:36.970Z,99.90
2017-09-12T13:10:03.300Z,99.90
2017-09-12T13:12:29.626Z,99.90
2017-09-12T13:14:57.445Z,99.90
2017-09-12T13:17:23.772Z,99.90
2017-09-12T13:19:50.805Z,99.90
2017-09-12T13:22:17.854Z,99.90
2017-09-12T13:24:44.194Z,99.90
2017-09-12T13:27:11.254Z,99.90
2017-09-12T13:29:38.256Z,99.90
2017-09-12T13:32:04.554Z,99.90
2017-09-12T13:34:30.830Z,99.90
2017-09-12T13:36:57.156Z,99.90
2017-09-12T13:39:23.454Z,99.90
2017-09-12T13:41:49.744Z,99.90
2017-09-12T13:44:16.774Z,99.90
2017-09-12T13:46:43.073Z,99.90
2017-09-12T13:49:09.385Z,99.90
2017-09-12T13:51:35.669Z,99.90
2017-09-12T13:54:02.687Z,99.90
2017-09-12T13:56:28.980Z,99.90
2017-09-12T13:58:55.288Z,99.90
2017-09-12T14:01:21.598Z,99.90
2017-09-12T14:03:47.911Z,99.90
2017-09-12T14:06:14.208Z,99.90
2017-09-12T14:08:40.494Z,99.90
2017-09-12T14:11:07.549Z,99.90
2017-09-12T14:13:34.599Z,99.90
2017-09-12T14:16:00.891Z,99.90
2017-09-12T14:18:27.491Z,99.90
2017-09-12T14:20:53.820Z,99.90
2017-09-12T14:23:20.137Z,99.90
2017-09-12T14:25:46.417Z,99.90
2017-09-12T14:28:14.196Z,99.90
2017-09-12T14:30:40.513Z,99.90
2017-09-12T14:33:06.785Z,99.90
2017-09-12T14:35:33.078Z,99.90
2017-09-12T14:38:00.852Z,99.90
2017-09-12T14:40:28.023Z,99.90
2017-09-12T14:42:54.338Z,99.90
2017-09-12T14:45:21.412Z,99.90
2017-09-12T14:47:47.733Z,99.90
2017-09-12T14:50:14.046Z,99.90
2017-09-12T14:52:41.088Z,99.90
2017-09-12T14:55:08.884Z,99.90
2017-09-12T14:57:35.184Z,99.90
2017-09-12T15:00:01.451Z,99.90
2017-09-12T15:02:27.744Z,99.90
2017-09-12T15:04:54.793Z,99.90
2017-09-12T15:07:21.119Z,99.90
2017-09-12T15:09:48.135Z,99.90
2017-09-12T15:12:21.487Z,99.90
2017-09-12T15:14:47.793Z,99.90
2017-09-12T15:17:14.818Z,99.90
2017-09-12T15:19:41.102Z,99.90
2017-09-12T15:22:07.395Z,99.90
2017-09-12T15:24:33.705Z,99.90
2017-09-12T15:27:00.046Z,99.90
2017-09-12T15:29:27.106Z,99.90
2017-09-12T15:31:54.245Z,99.90
2017-09-12T15:34:20.564Z,99.90
2017-09-12T15:36:46.838Z,99.90
2017-09-12T15:39:13.396Z,99.90
2017-09-12T15:41:39.663Z,99.90
2017-09-12T15:44:05.950Z,99.90
2017-09-12T15:46:32.244Z,99.90
2017-09-12T15:48:58.569Z,99.90
2017-09-12T15:51:25.713Z,99.70
2017-09-12T15:53:52.151Z,99.70
2017-09-12T15:56:19.196Z,99.50
2017-09-12T15:58:46.246Z,99.40
2017-09-12T16:01:12.560Z,99.40
2017-09-12T16:03:38.874Z,98.60
2017-09-12T16:06:05.176Z,97.90
2017-09-12T16:08:31.497Z,98.60
2017-09-12T16:10:57.803Z,97.70
2017-09-12T16:13:24.149Z,97.70
2017-09-12T16:15:50.439Z,97.20
2017-09-12T16:18:16.709Z,97.10
2017-09-12T16:20:43.732Z,98.10
2017-09-12T16:23:10.027Z,98.00
2017-09-12T16:25:36.329Z,97.80
2017-09-12T16:28:02.586Z,98.60
2017-09-12T16:30:28.901Z,98.50
2017-09-12T16:32:55.168Z,98.50
2017-09-12T16:35:21.472Z,98.20
2017-09-12T16:37:47.745Z,98.60
2017-09-12T16:40:14.041Z,99.20
2017-09-12T16:42:40.337Z,99.30
2017-09-12T16:45:06.646Z,99.60
2017-09-12T16:47:32.942Z,99.90
2017-09-12T16:49:59.985Z,99.90
2017-09-12T16:52:26.290Z,99.90
2017-09-12T16:54:52.558Z,99.90
2017-09-12T16:57:19.588Z,99.90
2017-09-12T16:59:45.869Z,99.90
2017-09-12T17:02:12.161Z,99.90
2017-09-12T17:04:38.690Z,99.90
2017-09-12T17:07:04.966Z,99.90
2017-09-12T17:09:31.280Z,99.90
2017-09-12T17:11:57.569Z,99.90
2017-09-12T17:14:23.890Z,99.90
2017-09-12T17:16:50.195Z,99.90
2017-09-12T17:19:16.532Z,99.90
2017-09-12T17:21:42.878Z,99.90
2017-09-12T17:24:10.690Z,99.90
2017-09-12T17:26:37.811Z,99.90
2017-09-12T17:29:04.078Z,99.90
2017-09-12T17:31:30.372Z,99.90
2017-09-12T17:33:57.406Z,99.90
2017-09-12T17:36:24.439Z,99.90
2017-09-12T17:38:50.718Z,99.90
2017-09-12T17:41:17.744Z,99.90
2017-09-12T17:43:44.779Z,99.90
2017-09-12T17:46:11.809Z,99.90
2017-09-12T17:48:38.122Z,99.90
2017-09-12T17:51:04.411Z,99.90
2017-09-12T17:53:31.464Z,99.90
2017-09-12T17:55:57.775Z,99.90
2017-09-12T17:58:24.806Z,99.90
2017-09-12T18:00:51.843Z,99.90
2017-09-12T18:03:18.580Z,99.90
2017-09-12T18:05:44.857Z,99.90
2017-09-12T18:08:11.139Z,99.90
2017-09-12T18:10:37.412Z,99.90
2017-09-12T18:13:04.461Z,99.90
2017-09-12T18:15:30.730Z,99.90
2017-09-12T18:17:57.016Z,99.90
2017-09-12T18:20:23.310Z,99.90
2017-09-12T18:22:50.339Z,99.90
2017-09-12T18:25:16.625Z,99.90
2017-09-12T18:27:42.893Z,99.90
2017-09-12T18:30:09.188Z,99.90
2017-09-12T18:32:36.169Z,99.90
2017-09-12T18:35:03.491Z,99.90
2017-09-12T18:37:29.783Z,99.90
2017-09-12T18:39:56.718Z,99.90
2017-09-12T18:42:22.997Z,99.90
2017-09-12T18:44:50.100Z,99.90
2017-09-12T18:47:17.139Z,99.90
2017-09-12T18:49:45.283Z,99.90
2017-09-12T18:52:12.301Z,99.90
2017-09-12T18:54:39.333Z,99.90
2017-09-12T18:57:06.435Z,99.90
2017-09-12T18:59:32.733Z,99.90
2017-09-12T19:01:59.016Z,99.90
2017-09-12T19:04:25.303Z,99.90
2017-09-12T19:06:51.669Z,99.90
2017-09-12T19:09:19.083Z,99.90
2017-09-12T19:11:45.382Z,99.90
2017-09-12T19:14:14.475Z,99.90
2017-09-12T19:16:41.519Z,99.90
2017-09-12T19:19:09.364Z,99.90
2017-09-12T19:21:36.408Z,99.90
2017-09-12T19:24:02.671Z,99.90
2017-09-12T19:26:30.067Z,99.90
2017-09-12T19:28:57.102Z,99.90
2017-09-12T19:31:23.390Z,99.90
2017-09-12T19:33:49.675Z,99.90
2017-09-12T19:36:16.015Z,99.90
2017-09-12T19:38:42.420Z,99.90
2017-09-12T19:41:08.730Z,99.90
2017-09-12T19:43:35.765Z,99.90
2017-09-12T19:46:02.887Z,99.90
2017-09-12T19:48:29.167Z,99.90
2017-09-12T19:50:55.510Z,99.90
2017-09-12T19:53:21.804Z,99.90
2017-09-12T19:55:49.129Z,99.90
2017-09-12T19:58:15.451Z,99.90
2017-09-12T20:00:42.541Z,99.90
2017-09-12T20:03:08.946Z,99.90
2017-09-12T20:05:35.281Z,99.90
2017-09-12T20:08:02.337Z,99.90
2017-09-12T20:10:29.341Z,99.90
2017-09-12T20:12:55.620Z,99.90
2017-09-12T20:15:22.697Z,99.90
2017-09-12T20:17:48.981Z,99.90
2017-09-12T20:20:15.331Z,99.90
2017-09-12T20:22:41.633Z,99.90
2017-09-12T20:25:07.933Z,99.90
2017-09-12T20:27:34.196Z,99.90
2017-09-12T20:30:00.570Z,99.90
2017-09-12T20:32:27.528Z,99.90
2017-09-12T20:34:54.693Z,99.90
2017-09-12T20:37:21.386Z,99.90
2017-09-12T20:39:48.433Z,99.90
2017-09-12T20:42:15.581Z,99.90
2017-09-12T20:44:42.855Z,99.90
2017-09-12T20:47:10.080Z,99.90
2017-09-12T20:49:38.040Z,99.90
2017-09-12T20:52:05.101Z,99.90
2017-09-12T20:54:33.089Z,99.90
2017-09-12T20:56:59.539Z,99.90
2017-09-12T20:59:25.829Z,99.90
2017-09-12T21:01:52.931Z,99.90
2017-09-12T21:04:19.248Z,99.90
2017-09-12T21:06:47.145Z,99.90
2017-09-12T21:09:13.443Z,99.90
2017-09-12T21:11:39.716Z,99.90
2017-09-12T21:14:06.011Z,99.90
2017-09-12T21:16:32.706Z,99.90
2017-09-12T21:18:59.193Z,99.90
2017-09-12T21:21:25.476Z,99.90
2017-09-12T21:23:52.498Z,99.90
2017-09-12T21:26:19.626Z,99.90
2017-09-12T21:28:50.789Z,99.90
2017-09-12T21:31:17.067Z,99.90
2017-09-12T21:33:43.349Z,99.90
2017-09-12T21:36:09.613Z,99.90
2017-09-12T21:38:37.604Z,99.90
2017-09-12T21:41:04.143Z,99.90
2017-09-12T21:43:30.498Z,99.90
2017-09-12T21:45:56.937Z,99.90
2017-09-12T21:48:24.579Z,99.90
2017-09-12T21:50:50.879Z,99.90
2017-09-12T21:53:17.145Z,99.90
2017-09-12T21:55:43.432Z,99.90
2017-09-12T21:58:10.650Z,99.90
2017-09-12T22:00:37.677Z,99.90
2017-09-12T22:03:04.516Z,99.90
2017-09-12T22:05:30.815Z,99.90
2017-09-12T22:07:57.076Z,99.90
2017-09-12T22:10:23.355Z,99.90
2017-09-12T22:12:50.380Z,99.90
2017-09-12T22:15:16.665Z,99.90
2017-09-12T22:17:42.966Z,99.90
2017-09-12T22:20:10.918Z,99.90
2017-09-12T22:22:37.949Z,99.90
2017-09-12T22:25:05.723Z,99.90
2017-09-12T22:27:38.249Z,99.90
2017-09-12T22:30:04.552Z,99.90
2017-09-12T22:32:32.576Z,99.90
2017-09-12T22:34:59.617Z,99.90
2017-09-12T22:37:25.897Z,99.90
2017-09-12T22:39:53.072Z,99.90
2017-09-12T22:42:19.334Z,99.90
2017-09-12T22:44:46.476Z,99.90
2017-09-12T22:47:13.387Z,99.90
2017-09-12T22:49:39.671Z,99.90
2017-09-12T22:52:05.968Z,99.90
2017-09-12T22:54:32.237Z,99.90
2017-09-12T22:56:59.250Z,99.90
2017-09-12T22:59:25.525Z,99.90
2017-09-12T23:01:53.396Z,99.90
2017-09-12T23:04:19.697Z,99.90
2017-09-12T23:06:49.425Z,99.90
2017-09-12T23:09:15.737Z,99.90
2017-09-12T23:11:47.418Z,99.90
2017-09-12T23:14:14.677Z,99.90
2017-09-12T23:16:43.300Z,99.90
2017-09-12T23:19:09.596Z,99.90
2017-09-12T23:21:37.731Z,99.90
2017-09-12T23:24:05.020Z,99.90
2017-09-12T23:26:31.314Z,99.90
2017-09-12T23:28:57.615Z,99.90
2017-09-12T23:31:23.883Z,99.90
2017-09-12T23:33:50.916Z,99.90
2017-09-12T23:36:18.672Z,99.90
2017-09-12T23:38:44.988Z,99.90
2017-09-12T23:41:12.957Z,99.90
2017-09-12T23:43:40.839Z,99.90
2017-09-12T23:46:08.507Z,99.90
2017-09-12T23:48:36.257Z,99.90
2017-09-12T23:51:04.043Z,99.90
2017-09-12T23:53:32.610Z,99.90
2017-09-12T23:55:59.661Z,99.90
2017-09-12T23:58:25.932Z,99.90
